createdAt,value
2023-02-03T00:03:34.529Z,78.46
2023-02-03T00:08:34.744Z,77.79
2023-02-03T00:13:34.503Z,79.67
2023-02-03T00:18:33.536Z,80.11
2023-02-03T00:23:32.977Z,79.55
2023-02-03T00:28:33.233Z,79.07
2023-02-03T00:33:33.844Z,79.16
2023-02-03T00:38:33.785Z,78.04
2023-02-03T00:43:34.018Z,79.47
2023-02-03T00:48:32.812Z,77.82
2023-02-03T00:53:31.651Z,78.04
2023-02-03T00:58:30.397Z,79.22
2023-02-03T01:03:30.566Z,79.16
2023-02-03T01:08:29.319Z,80.13
2023-02-03T01:13:28.042Z,79.88
2023-02-03T01:18:26.744Z,80.89
2023-02-03T01:23:26.943Z,80.58
2023-02-03T01:28:25.708Z,80.53
2023-02-03T01:33:24.658Z,80.06
2023-02-03T01:38:23.446Z,79.17
2023-02-03T01:43:35.436Z,79.03
2023-02-03T01:48:35.736Z,78.48
2023-02-03T01:53:35.271Z,79.23
2023-02-03T01:58:40.959Z,78.39
2023-02-03T02:03:44.217Z,77.78
2023-02-03T02:08:47.250Z,77.47
2023-02-03T02:13:49.505Z,78.71
2023-02-03T02:19:02.085Z,79.64
2023-02-03T02:24:36.737Z,80.19
2023-02-03T02:30:14.419Z,79.79
2023-02-03T02:35:22.108Z,80.06
2023-02-03T02:40:31.268Z,78.60
2023-02-03T02:45:35.584Z,78.25
2023-02-03T02:50:41.681Z,78.79
2023-02-03T02:55:44.662Z,78.58
2023-02-03T03:00:45.748Z,79.81
2023-02-03T03:05:52.210Z,78.89
2023-02-03T03:10:57.005Z,79.23
2023-02-03T03:15:58.067Z,79.58
2023-02-03T03:21:06.132Z,79.47
2023-02-03T03:26:11.342Z,79.57
2023-02-03T03:31:10.336Z,79.26
2023-02-03T03:36:19.340Z,80.07
2023-02-03T03:41:26.585Z,80.26
2023-02-03T03:46:29.916Z,80.80
2023-02-03T03:51:36.011Z,79.77
2023-02-03T03:56:40.580Z,80.70
2023-02-03T04:01:40.752Z,81.06
2023-02-03T04:06:41.560Z,80.70
2023-02-03T04:11:57.446Z,80.01
2023-02-03T04:16:56.202Z,80.60
2023-02-03T04:21:56.500Z,81.21
2023-02-03T04:26:55.229Z,80.53
2023-02-03T04:31:54.014Z,81.28
2023-02-03T04:36:52.818Z,80.07
2023-02-03T04:41:53.295Z,80.48
2023-02-03T04:46:52.194Z,80.83
2023-02-03T04:51:51.186Z,81.26
2023-02-03T04:56:49.943Z,81.02
2023-02-03T05:01:50.086Z,79.94
2023-02-03T05:06:49.137Z,80.15
2023-02-03T05:11:47.888Z,82.33
2023-02-03T05:16:46.834Z,82.95
2023-02-03T05:21:47.004Z,80.57
2023-02-03T05:26:45.752Z,79.42
2023-02-03T05:31:44.473Z,80.31
2023-02-03T05:36:43.224Z,80.48
2023-02-03T05:41:58.269Z,80.78
2023-02-03T05:46:59.169Z,80.41
2023-02-03T05:51:58.138Z,80.62
2023-02-03T05:56:58.315Z,79.89
2023-02-03T06:01:57.204Z,79.82
2023-02-03T06:06:56.035Z,81.42
2023-02-03T06:11:54.865Z,81.49
2023-02-03T06:16:55.136Z,81.84
2023-02-03T06:21:53.845Z,82.18
2023-02-03T06:26:52.649Z,81.97
2023-02-03T06:31:51.819Z,84.27
2023-02-03T06:36:52.109Z,83.10
2023-02-03T06:41:51.867Z,83.87
2023-02-03T06:46:51.387Z,82.42
2023-02-03T06:51:52.464Z,81.82
2023-02-03T06:56:51.371Z,82.01
2023-02-03T07:01:50.199Z,80.41
2023-02-03T07:06:48.942Z,80.33
2023-02-03T07:11:49.087Z,80.96
2023-02-03T07:16:47.840Z,81.22
2023-02-03T07:21:46.520Z,81.17
2023-02-03T07:26:45.183Z,80.91
2023-02-03T07:31:45.695Z,82.64
2023-02-03T07:36:44.509Z,83.23
2023-02-03T07:41:43.365Z,83.79
2023-02-03T07:46:45.083Z,82.02
2023-02-03T07:51:45.373Z,82.27
2023-02-03T07:56:44.859Z,81.60
2023-02-03T08:02:28.131Z,80.69
2023-02-03T08:07:28.762Z,77.57
2023-02-03T08:12:43.943Z,78.22
2023-02-03T08:17:44.674Z,77.60
2023-02-03T08:22:57.398Z,76.88
2023-02-03T08:27:56.521Z,75.76
2023-02-03T08:32:55.562Z,74.85
2023-02-03T08:37:55.986Z,73.61
2023-02-03T08:42:55.004Z,72.50
2023-02-03T08:47:54.012Z,72.21
2023-02-03T08:52:52.903Z,71.83
2023-02-03T08:57:53.514Z,70.93
2023-02-03T09:02:52.377Z,70.50
2023-02-03T09:07:56.494Z,69.91
2023-02-03T09:13:04.316Z,69.08
2023-02-03T09:18:03.271Z,68.07
2023-02-03T09:23:02.491Z,67.87
2023-02-03T09:28:04.743Z,67.40
2023-02-03T09:33:04.439Z,66.63
2023-02-03T09:38:19.965Z,68.58
2023-02-03T09:43:46.644Z,68.13
2023-02-03T09:48:49.523Z,66.73
2023-02-03T09:53:53.305Z,66.37
2023-02-03T09:58:53.326Z,66.66
2023-02-03T10:03:58.641Z,67.09
2023-02-03T10:09:15.159Z,66.90
2023-02-03T10:14:29.736Z,64.90
2023-02-03T10:19:40.398Z,64.18
2023-02-03T10:24:45.085Z,64.38
2023-02-03T10:29:45.734Z,63.72
2023-02-03T10:34:48.502Z,63.92
2023-02-03T10:39:49.561Z,64.01
2023-02-03T10:45:07.734Z,65.58
2023-02-03T10:50:09.054Z,66.57
2023-02-03T10:55:11.491Z,66.02
2023-02-03T11:00:24.623Z,63.55
2023-02-03T11:05:26.595Z,56.22
2023-02-03T11:10:36.158Z,52.41
2023-02-03T11:15:36.585Z,48.31
2023-02-03T11:20:38.178Z,43.74
2023-02-03T11:25:37.147Z,43.68
2023-02-03T11:30:39.613Z,42.96
2023-02-03T11:35:40.231Z,44.01
2023-02-03T11:40:41.945Z,42.12
2023-02-03T11:45:44.870Z,40.75
2023-02-03T11:50:50.814Z,39.65
2023-02-03T11:56:18.516Z,41.44
2023-02-03T12:01:29.843Z,41.34
2023-02-03T12:06:57.460Z,41.77
2023-02-03T12:12:21.749Z,41.42
2023-02-03T12:17:57.609Z,40.06
2023-02-03T12:23:07.364Z,40.84
2023-02-03T12:28:32.501Z,40.69
2023-02-03T12:33:40.750Z,38.80
2023-02-03T12:38:45.272Z,39.16
2023-02-03T12:43:50.312Z,38.66
2023-02-03T12:48:59.977Z,39.34
2023-02-03T12:54:04.879Z,40.08
2023-02-03T12:59:09.468Z,40.61
2023-02-03T13:04:22.140Z,41.95
2023-02-03T13:09:30.092Z,42.89
2023-02-03T13:14:34.364Z,43.08
2023-02-03T13:19:42.480Z,44.61
2023-02-03T13:24:49.406Z,45.61
2023-02-03T13:36:00.042Z,49.07
2023-02-03T13:41:30.379Z,48.71
2023-02-03T13:46:34.370Z,49.02
2023-02-03T13:51:37.254Z,50.09
2023-02-03T13:56:37.187Z,50.19
2023-02-03T14:07:47.214Z,42.85
2023-02-03T14:13:06.562Z,46.08
2023-02-03T14:18:42.302Z,49.64
2023-02-03T14:24:24.181Z,52.01
2023-02-03T14:29:30.468Z,52.02
2023-02-03T14:34:58.357Z,52.23
2023-02-03T14:40:48.332Z,53.99
2023-02-03T14:46:35.141Z,55.48
2023-02-03T14:57:48.243Z,56.84
2023-02-03T15:03:25.622Z,57.47
2023-02-03T15:08:49.876Z,57.27
2023-02-03T15:14:00.807Z,57.25
2023-02-03T15:19:33.455Z,57.81
2023-02-03T15:24:47.083Z,57.29
2023-02-03T15:29:46.510Z,57.17
2023-02-03T15:35:00.885Z,57.80
2023-02-03T15:40:20.851Z,57.54
2023-02-03T15:45:52.032Z,58.17
2023-02-03T15:51:53.031Z,58.47
2023-02-03T15:57:22.060Z,59.98
2023-02-03T16:02:34.629Z,59.07
2023-02-03T16:07:33.621Z,59.14
2023-02-03T16:12:36.243Z,60.77
2023-02-03T16:17:37.332Z,60.85
2023-02-03T16:22:39.855Z,61.05
2023-02-03T16:27:40.293Z,60.95
2023-02-03T16:32:57.906Z,61.44
2023-02-03T16:38:14.968Z,61.31
2023-02-03T16:43:34.725Z,61.77
2023-02-03T16:48:51.295Z,61.30
2023-02-03T16:53:50.914Z,61.68
2023-02-03T16:58:56.398Z,61.30
2023-02-03T17:03:57.355Z,61.25
2023-02-03T17:08:58.906Z,60.53
2023-02-03T17:14:05.863Z,61.11
2023-02-03T17:19:06.227Z,60.10
2023-02-03T17:24:07.795Z,60.34
2023-02-03T17:29:11.009Z,58.90
2023-02-03T17:34:10.330Z,58.59
2023-02-03T17:55:03.504Z,58.73
2023-02-03T18:00:04.579Z,57.96
2023-02-03T18:05:11.625Z,57.78
2023-02-03T18:10:11.292Z,58.30
2023-02-03T18:15:21.437Z,57.88
2023-02-03T18:20:23.281Z,57.66
2023-02-03T18:25:22.527Z,57.03
2023-02-03T18:30:23.053Z,56.97
2023-02-03T18:35:22.322Z,56.84
2023-02-03T18:40:21.553Z,56.44
2023-02-03T18:45:23.670Z,55.85
2023-02-03T18:50:24.447Z,55.69
2023-02-03T18:55:24.274Z,55.47
2023-02-03T19:00:23.420Z,54.91
2023-02-03T19:05:24.115Z,54.65
2023-02-03T19:10:23.733Z,54.57
2023-02-03T19:15:23.755Z,54.35
2023-02-03T19:20:25.096Z,54.40
2023-02-03T19:25:27.011Z,53.60
2023-02-03T19:30:26.457Z,53.90
2023-02-03T19:35:27.299Z,54.42
2023-02-03T19:40:26.735Z,53.89
2023-02-03T19:45:27.259Z,53.49
2023-02-03T19:50:28.106Z,53.20
2023-02-03T19:55:31.056Z,53.65
2023-02-03T20:00:30.871Z,54.22
2023-02-03T20:05:31.896Z,53.69
2023-02-03T20:10:32.707Z,53.87
2023-02-03T20:15:35.095Z,54.32
2023-02-03T20:20:41.854Z,54.12
2023-02-03T20:25:41.009Z,54.51
2023-02-03T20:30:43.349Z,54.21
2023-02-03T20:35:45.167Z,53.88
2023-02-03T20:40:45.014Z,53.96
2023-02-03T20:45:44.620Z,54.19
2023-02-03T20:50:47.468Z,54.76
2023-02-03T20:55:46.914Z,54.80
2023-02-03T21:00:46.418Z,54.77
2023-02-03T21:05:46.765Z,55.37
2023-02-03T21:10:48.088Z,54.81
2023-02-03T21:15:47.348Z,54.69
2023-02-03T21:20:51.100Z,54.53
2023-02-03T21:25:50.706Z,55.25
2023-02-03T21:30:49.937Z,55.48
2023-02-03T21:35:52.403Z,55.81
2023-02-03T21:41:07.161Z,55.46
2023-02-03T21:46:17.084Z,55.38
2023-02-03T21:51:23.977Z,55.39
2023-02-03T21:56:25.224Z,55.47
2023-02-03T22:01:26.309Z,55.48
2023-02-03T22:06:32.542Z,55.73
2023-02-03T22:11:33.348Z,55.07
2023-02-03T22:16:32.411Z,55.45
2023-02-03T22:21:35.982Z,55.48
2023-02-03T22:26:39.548Z,55.93
2023-02-03T22:31:39.039Z,55.96
2023-02-03T22:36:45.770Z,55.80
2023-02-03T22:41:50.365Z,54.94
2023-02-03T22:46:56.248Z,55.03
2023-02-03T22:52:01.560Z,54.48
2023-02-03T22:57:02.788Z,54.06
2023-02-03T23:02:02.263Z,54.56
2023-02-03T23:07:02.863Z,54.54
2023-02-03T23:12:02.392Z,54.20
2023-02-03T23:17:04.260Z,54.19
2023-02-03T23:22:06.278Z,54.15
2023-02-03T23:27:08.958Z,54.91
2023-02-03T23:32:11.079Z,57.45
2023-02-03T23:37:13.250Z,59.52
2023-02-03T23:42:12.674Z,62.85
2023-02-03T23:47:11.924Z,65.81
2023-02-03T23:52:12.635Z,70.27
2023-02-03T23:57:12.014Z,73.58
